Country
Station

 

Weather  for  Grand Rapids, Kent County International Airport  -  United States    United States

  
31 °C (88 °F)
    
 
 

Current METAR for Grand Rapids, Kent County International Airport is :

KGRR 191653Z 23015G20KT 10SM SCT024 SCT110 BKN210 31/24 A2985 RMK AO2 SLP100 T03110244

 

This is a report for Grand Rapids, Kent County International Airport - United States.
 
The report was made 29 minutes ago, at 16:53 UTC .
The wind was blowing at a speed of 7.7 meters per second (17.3 miles per hour) with gusts up to 10.3 meters per second (23.0 miles per hour) from southwest (230°).
 
The temperature was 31 °C (88 °F), with a dew-point at 24 °C (75 °F).
The temperature felt like 37 °C (98 °F).
 
The atmospheric pressure was 1011 hPa (29.85 inHg).
The relative humidity was 66.4%.
 
There were scattered clouds at a height of 732 meters (2400 feet), scattered clouds at a height of 3353 meters (11000 feet) and broken clouds at a height of 6401 meters (21000 feet).
 
The overall visibility was 16.1 kilometers (10.0 miles).
 

 
 
 
 

Country :   A   B   C   D   E   F   G   H   I   J   K   L   M   N   O   P   Q   R   S   T   U   V   W   Y   Z

 

Site Info  |  Disclaimer  |  Credits  |  Privacy
Contact us  |  Add to favorites
© 2013-2019 METARs - All rights reserved